Decoded Metar for LFTW (NIMES in FRANCE) (IATA:FNI) | Meteo·Mobile Aviation Weather
aviador You're here:

LFTW Decoded Metar

NIMES in FRANCE
Report Time2019-02-22 00:00:00
UTC Time2019-02-22 00:17:14
Flight Rules vfr VFR
Wind320° at 05 kt
W.Decomp.*RWY 36: 3.8 kt HW 3.3 kt LCW
W.Rank320° ranks 8
Current wind is below 320° avg. (6.9)
Visibility9999 m
Phenomena:N/A
Clouds:N/A
Expected CloudBase > 800 ft AGL from Temp-Dew spread
CeilingNone
Temp08°C (ISA -6)
Dew Point06°C (87% RH)
AAT5.3°C
QNH1028 hPa
Density Alt-830 ft
Elevation315 ft
Report Wrong Elevation
Raw Report
LFTW 220000Z AUTO 32005KT CAVOK 08/06 Q1028 NOSIG=

Extra information for LFTW:More info

Metar Taf Metar & Taf Last 4 Metars F.Rules Stats Wind Profile Meteogram Temp Stats Airport Information Weather charts Add Link Nearby VenuesMetar ALERT Operation Metar Decoded Social comments